Time;durP1;ratioP1;P1;durP2;ratioP2;P2;SDS_P1;SDS_P2;PMS_P1;PMS_P2;Temp;Humidity;BMP_temperature;BMP_pressure;BME280_temperature;BME280_humidity;BME280_pressure;Samples;Min_cycle;Max_cycle;Signal;HPM_P1;HPM_P2
2022/07/04 00:01:13;;;;;;;2.20;1.40;;;17.20;82.30;;;;;;5082565;28;20469;-64
2022/07/04 00:03:40;;;;;;;2.47;1.30;;;17.10;83.00;;;;;;5072111;28;20901;-65
2022/07/04 00:06:07;;;;;;;1.60;1.50;;;17.10;84.00;;;;;;5081780;28;21074;-64
2022/07/04 00:08:36;;;;;;;1.53;1.20;;;17.10;84.70;;;;;;5077117;28;20467;-64
2022/07/04 00:11:03;;;;;;;2.53;1.83;;;17.00;85.20;;;;;;5081173;28;20561;-63
2022/07/04 00:13:31;;;;;;;2.13;1.73;;;16.90;85.70;;;;;;5092260;28;20577;-63
2022/07/04 00:15:58;;;;;;;5.20;1.40;;;16.90;86.60;;;;;;5092096;28;20512;-64
2022/07/04 00:18:26;;;;;;;1.50;1.40;;;16.80;87.20;;;;;;5093228;28;20438;-64
2022/07/04 00:20:53;;;;;;;2.43;1.50;;;16.80;87.90;;;;;;5084240;28;20467;-63
2022/07/04 00:23:20;;;;;;;2.60;1.70;;;16.80;88.70;;;;;;5072104;28;20506;-64
2022/07/04 00:25:49;;;;;;;1.60;1.50;;;16.70;89.20;;;;;;5074327;28;20636;-64
2022/07/04 00:28:16;;;;;;;1.60;1.40;;;16.70;90.00;;;;;;5086989;28;20466;-64
2022/07/04 00:30:44;;;;;;;1.60;1.30;;;16.60;90.30;;;;;;5087353;28;20463;-63
2022/07/04 00:33:15;;;;;;;1.43;1.23;;;16.60;90.80;;;;;;5075810;28;20528;-65
2022/07/04 00:35:43;;;;;;;2.33;1.37;;;16.60;91.10;;;;;;5084239;28;20530;-64
2022/07/04 00:38:10;;;;;;;2.03;1.23;;;16.60;91.40;;;;;;5083027;28;20545;-64
2022/07/04 00:40:38;;;;;;;2.13;1.40;;;16.50;91.90;;;;;;5075361;28;20492;-64
2022/07/04 00:43:07;;;;;;;1.30;1.20;;;16.50;92.20;;;;;;5062082;28;21380;-64
2022/07/04 00:45:35;;;;;;;1.67;1.47;;;16.40;92.30;;;;;;5089028;28;20512;-64
2022/07/04 00:48:02;;;;;;;2.57;1.40;;;16.40;92.80;;;;;;5076882;28;20846;-64
2022/07/04 00:50:29;;;;;;;3.30;1.40;;;16.40;93.10;;;;;;5080398;28;20463;-64
2022/07/04 00:52:57;;;;;;;3.20;1.33;;;16.30;93.30;;;;;;5089627;28;20489;-64
2022/07/04 00:55:25;;;;;;;3.07;2.03;;;16.30;93.50;;;;;;5092451;28;20474;-64
2022/07/04 00:57:53;;;;;;;1.40;1.30;;;16.20;93.70;;;;;;5081116;28;20491;-64
2022/07/04 01:00:22;;;;;;;2.80;1.50;;;16.20;94.20;;;;;;5075453;28;20463;-63
2022/07/04 01:02:49;;;;;;;2.80;1.67;;;16.10;94.40;;;;;;5083408;28;21044;-63
2022/07/04 01:05:17;;;;;;;1.90;1.70;;;16.10;94.60;;;;;;5080287;28;20462;-64
2022/07/04 01:07:44;;;;;;;1.57;1.40;;;16.10;94.80;;;;;;5096803;28;20499;-64
2022/07/04 01:10:12;;;;;;;1.57;1.47;;;16.00;95.10;;;;;;5091831;28;20524;-63
2022/07/04 01:12:39;;;;;;;1.70;1.60;;;16.00;95.30;;;;;;5076035;28;20467;-63
2022/07/04 01:15:08;;;;;;;2.60;1.73;;;16.00;95.60;;;;;;5090024;28;20553;-63
2022/07/04 01:17:37;;;;;;;2.20;2.00;;;16.00;95.80;;;;;;5095016;28;20492;-63
2022/07/04 01:20:05;;;;;;;3.47;2.13;;;15.90;96.00;;;;;;5091570;28;20455;-63
2022/07/04 01:22:34;;;;;;;2.47;2.17;;;15.90;96.30;;;;;;5085277;28;20996;-63
2022/07/04 01:25:03;;;;;;;2.10;1.80;;;15.90;96.70;;;;;;5077908;28;20533;-63
2022/07/04 01:27:30;;;;;;;3.63;2.00;;;15.80;96.90;;;;;;5094771;28;20450;-63
2022/07/04 01:29:57;;;;;;;3.20;2.53;;;15.80;97.20;;;;;;5094944;28;20881;-63
2022/07/04 01:32:24;;;;;;;3.67;2.10;;;15.80;97.40;;;;;;5077401;28;20540;-63
2022/07/04 01:34:52;;;;;;;3.40;2.37;;;15.70;97.60;;;;;;5076476;28;20475;-63
2022/07/04 01:37:19;;;;;;;2.70;2.50;;;15.70;97.80;;;;;;5094104;28;20576;-64
2022/07/04 01:39:48;;;;;;;2.93;2.60;;;15.70;98.00;;;;;;5082123;28;20522;-63
2022/07/04 01:42:15;;;;;;;4.07;2.57;;;15.70;98.10;;;;;;5084136;28;20532;-63
2022/07/04 01:44:42;;;;;;;4.70;3.10;;;15.70;98.40;;;;;;5085263;28;20614;-64
2022/07/04 01:47:09;;;;;;;2.80;2.47;;;15.60;98.50;;;;;;5080570;28;20525;-64
2022/07/04 01:49:37;;;;;;;4.13;2.50;;;15.60;98.70;;;;;;5075184;28;20447;-62
2022/07/04 01:52:05;;;;;;;2.73;2.53;;;15.50;99.00;;;;;;5075978;28;20483;-64
2022/07/04 01:54:32;;;;;;;3.50;2.90;;;15.50;99.30;;;;;;5077871;28;20515;-64
2022/07/04 01:57:01;;;;;;;3.83;2.90;;;15.50;99.40;;;;;;5087871;28;20546;-64
2022/07/04 02:02:09;;;;;;;2.83;2.53;;;15.40;99.80;;;;;;5088689;28;20819;-64
2022/07/04 02:04:36;;;;;;;3.40;3.10;;;15.40;99.90;;;;;;5093984;28;20525;-64
2022/07/04 02:07:04;;;;;;;4.20;2.47;;;15.40;99.90;;;;;;5094328;28;20515;-64
2022/07/04 02:09:31;;;;;;;2.80;2.60;;;15.40;99.90;;;;;;5095144;28;20512;-64
2022/07/04 02:14:44;;;;;;;3.90;3.60;;;15.30;99.90;;;;;;5078329;28;20548;-64
2022/07/04 02:17:12;;;;;;;3.60;2.97;;;15.30;99.90;;;;;;5090272;28;20805;-64
2022/07/04 02:19:39;;;;;;;3.93;2.73;;;15.30;99.90;;;;;;5091057;28;20454;-63
2022/07/04 02:22:07;;;;;;;3.03;2.70;;;15.20;99.90;;;;;;5055606;28;20908;-64
2022/07/04 02:24:34;;;;;;;3.10;2.90;;;15.20;99.90;;;;;;5077915;28;20794;-64
2022/07/04 02:27:03;;;;;;;3.90;3.30;;;15.20;99.90;;;;;;5093565;28;20810;-63
2022/07/04 02:29:30;;;;;;;3.13;2.73;;;15.20;99.90;;;;;;5093989;28;20488;-64
2022/07/04 02:31:57;;;;;;;2.50;2.30;;;15.10;99.90;;;;;;5084616;28;20570;-64
2022/07/04 02:34:25;;;;;;;6.53;3.03;;;15.10;99.90;;;;;;5074621;28;20489;-64
2022/07/04 02:36:52;;;;;;;3.23;2.90;;;15.00;99.90;;;;;;5080022;28;20519;-64
2022/07/04 02:39:19;;;;;;;3.90;3.60;;;15.00;99.90;;;;;;5085481;28;20558;-64
2022/07/04 02:41:47;;;;;;;5.37;4.00;;;15.00;99.90;;;;;;5090111;28;20535;-64
2022/07/04 02:44:16;;;;;;;3.33;3.03;;;15.00;99.90;;;;;;5087643;28;21021;-64
2022/07/04 02:46:43;;;;;;;4.53;3.57;;;14.90;99.90;;;;;;5073403;28;20481;-64
2022/07/04 02:49:11;;;;;;;3.50;3.20;;;14.90;99.90;;;;;;5073340;28;20443;-64
2022/07/04 02:51:38;;;;;;;4.27;3.87;;;14.90;99.90;;;;;;5075591;28;20484;-64
2022/07/04 02:54:05;;;;;;;4.40;4.00;;;14.90;99.90;;;;;;5092274;28;20438;-64
2022/07/04 02:56:32;;;;;;;7.53;3.77;;;14.90;99.90;;;;;;5061066;28;20600;-64
2022/07/04 02:59:00;;;;;;;4.97;4.30;;;14.90;99.90;;;;;;5093076;28;21155;-64
2022/07/04 03:01:29;;;;;;;6.43;3.50;;;14.90;99.90;;;;;;5093132;28;20863;-64
2022/07/04 03:03:56;;;;;;;3.90;3.47;;;14.90;99.90;;;;;;5084884;28;20513;-64
2022/07/04 03:06:23;;;;;;;4.00;3.13;;;14.90;99.90;;;;;;5075116;28;21030;-64
2022/07/04 03:08:52;;;;;;;7.17;3.80;;;14.90;99.90;;;;;;5093952;28;20454;-64
2022/07/04 03:11:19;;;;;;;5.73;3.80;;;14.90;99.90;;;;;;5092805;28;20458;-64
2022/07/04 03:13:47;;;;;;;5.10;3.50;;;14.90;99.90;;;;;;5092822;28;20515;-64
2022/07/04 03:16:15;;;;;;;4.03;3.63;;;14.90;99.90;;;;;;5091408;28;20478;-63
2022/07/04 03:18:43;;;;;;;4.10;3.80;;;14.90;99.90;;;;;;5088836;28;20459;-64
2022/07/04 03:21:11;;;;;;;5.03;3.80;;;14.90;99.90;;;;;;5088762;28;20507;-63
2022/07/04 03:23:38;;;;;;;6.50;4.00;;;15.00;99.90;;;;;;5092114;28;20981;-64
2022/07/04 03:26:05;;;;;;;5.30;3.33;;;14.90;99.90;;;;;;5093156;28;20443;-63
2022/07/04 03:28:32;;;;;;;6.43;3.90;;;15.00;99.90;;;;;;5082604;28;20486;-62
2022/07/04 03:31:00;;;;;;;4.40;4.03;;;15.00;99.90;;;;;;5091367;28;20557;-64
2022/07/04 03:33:27;;;;;;;4.27;3.87;;;15.10;99.90;;;;;;5091456;28;20509;-64
2022/07/04 03:35:56;;;;;;;6.10;4.03;;;15.10;99.90;;;;;;5092486;28;20919;-64
2022/07/04 03:38:23;;;;;;;6.17;4.17;;;15.10;99.90;;;;;;5092346;28;20524;-63
2022/07/04 03:40:50;;;;;;;5.67;4.10;;;15.10;99.90;;;;;;5090050;28;20491;-64
2022/07/04 03:43:17;;;;;;;4.60;3.90;;;15.10;99.90;;;;;;5092564;28;20560;-64
2022/07/04 03:45:44;;;;;;;4.60;4.00;;;15.20;99.90;;;;;;5092011;28;20569;-63
2022/07/04 03:48:12;;;;;;;5.03;3.63;;;15.20;99.90;;;;;;5092415;28;20559;-64
2022/07/04 03:50:39;;;;;;;4.17;3.73;;;15.30;99.90;;;;;;5092274;28;20497;-64
2022/07/04 03:53:08;;;;;;;3.83;3.43;;;15.30;99.90;;;;;;5091210;28;20914;-63
2022/07/04 03:55:35;;;;;;;5.00;4.27;;;15.30;99.90;;;;;;5078681;28;20513;-63
2022/07/04 03:58:04;;;;;;;5.90;4.30;;;15.40;99.90;;;;;;5088582;28;20462;-64
2022/07/04 04:00:31;;;;;;;5.03;4.10;;;15.70;99.90;;;;;;5091780;28;20438;-64
2022/07/04 04:02:59;;;;;;;6.13;4.30;;;16.00;99.90;;;;;;5092348;28;20557;-64
2022/07/04 04:05:30;;;;;;;3.60;3.30;;;16.40;99.90;;;;;;5093149;28;21001;-64
2022/07/04 04:09:55;;;;;;;3.60;3.30;;;17.10;99.90;;;;;;5088922;27;1454450;-64
2022/07/04 04:12:22;;;;;;;3.70;3.40;;;17.40;99.90;;;;;;5129600;28;20271;-62
2022/07/04 04:14:50;;;;;;;4.73;3.90;;;17.60;99.50;;;;;;5129293;28;20534;-64
2022/07/04 04:17:17;;;;;;;4.33;3.93;;;17.70;98.70;;;;;;5129156;28;20485;-64
2022/07/04 04:19:44;;;;;;;4.33;3.63;;;17.70;98.20;;;;;;5118645;28;20551;-65
2022/07/04 04:22:11;;;;;;;5.40;3.87;;;17.50;98.20;;;;;;5126434;28;20984;-63
2022/07/04 04:24:39;;;;;;;5.17;4.50;;;17.30;98.50;;;;;;5110448;28;21017;-64
2022/07/04 04:27:07;;;;;;;3.60;3.30;;;17.30;99.10;;;;;;5118004;28;20543;-64
2022/07/04 04:29:35;;;;;;;6.70;3.63;;;17.60;98.90;;;;;;5127555;28;20568;-64
2022/07/04 04:32:02;;;;;;;7.53;3.73;;;18.00;98.10;;;;;;5128349;28;20512;-64
2022/07/04 04:34:29;;;;;;;3.70;3.40;;;18.50;96.90;;;;;;5128538;28;20499;-63
2022/07/04 04:36:56;;;;;;;5.77;3.80;;;18.80;95.70;;;;;;5129829;28;20465;-64
2022/07/04 04:39:24;;;;;;;5.47;3.60;;;19.20;94.60;;;;;;5116880;28;20457;-64
2022/07/04 04:41:51;;;;;;;4.00;3.50;;;19.40;93.50;;;;;;5128326;28;20542;-63
2022/07/04 04:44:20;;;;;;;6.83;4.10;;;19.40;92.60;;;;;;5128271;28;20492;-63
2022/07/04 04:46:47;;;;;;;5.33;4.10;;;19.20;92.70;;;;;;5112933;28;20509;-64
2022/07/04 04:49:14;;;;;;;5.87;3.90;;;19.10;92.80;;;;;;5133256;28;20564;-64
2022/07/04 04:51:41;;;;;;;6.13;4.00;;;19.10;92.90;;;;;;5131197;28;20528;-64
2022/07/04 04:54:09;;;;;;;4.10;3.73;;;19.20;92.80;;;;;;5149715;22;20481;-61
2022/07/04 04:56:37;;;;;;;6.23;4.20;;;19.40;92.40;;;;;;5098471;28;20470;-64
2022/07/04 04:59:04;;;;;;;4.90;3.80;;;19.80;91.70;;;;;;5108296;28;20460;-65
2022/07/04 05:01:33;;;;;;;5.20;4.00;;;20.00;91.00;;;;;;5109163;28;20464;-64
2022/07/04 05:04:01;;;;;;;4.93;3.47;;;20.20;90.10;;;;;;5105067;28;20460;-64
2022/07/04 05:06:28;;;;;;;4.00;3.47;;;20.40;89.10;;;;;;5097085;28;20458;-65
2022/07/04 05:08:55;;;;;;;5.87;3.97;;;20.50;87.60;;;;;;5092160;28;20511;-64
2022/07/04 05:11:23;;;;;;;6.13;3.30;;;20.60;85.80;;;;;;5089518;28;20458;-64
2022/07/04 05:13:50;;;;;;;4.57;3.17;;;20.60;85.80;;;;;;5089811;28;20870;-64
2022/07/04 05:16:17;;;;;;;4.57;2.97;;;20.70;85.10;;;;;;5092295;28;20482;-63
2022/07/04 05:18:46;;;;;;;4.90;2.90;;;20.80;84.50;;;;;;5088953;28;20466;-65
2022/07/04 05:21:13;;;;;;;6.10;2.97;;;20.80;83.00;;;;;;5076194;28;20826;-64
2022/07/04 05:23:41;;;;;;;5.80;3.40;;;20.90;81.90;;;;;;5075764;28;20461;-63
2022/07/04 05:26:08;;;;;;;7.67;3.40;;;20.80;80.90;;;;;;5075031;28;20508;-63
2022/07/04 05:28:35;;;;;;;4.17;3.33;;;20.60;81.30;;;;;;5079193;28;21006;-63
2022/07/04 05:31:03;;;;;;;6.67;3.60;;;20.50;82.30;;;;;;5076081;28;20447;-63
2022/07/04 05:33:30;;;;;;;4.50;3.60;;;20.40;82.30;;;;;;5078795;28;20827;-63
2022/07/04 05:35:59;;;;;;;6.50;4.60;;;20.30;82.40;;;;;;5075997;28;20536;-63
2022/07/04 05:38:26;;;;;;;6.93;4.50;;;19.90;84.00;;;;;;5084847;28;20499;-63
2022/07/04 05:40:54;;;;;;;4.90;4.20;;;19.80;85.80;;;;;;5079781;28;20446;-63
2022/07/04 05:43:22;;;;;;;10.83;4.40;;;19.70;85.80;;;;;;5074521;28;20484;-64
2022/07/04 05:45:49;;;;;;;4.60;4.10;;;19.60;86.30;;;;;;5077954;28;20473;-64
2022/07/04 05:48:16;;;;;;;5.37;4.27;;;19.60;87.20;;;;;;5074011;28;20863;-64
2022/07/04 05:50:44;;;;;;;5.20;3.90;;;19.60;86.50;;;;;;5078348;28;20877;-63
2022/07/04 05:53:12;;;;;;;4.13;3.73;;;19.60;86.40;;;;;;5075402;28;20503;-63
2022/07/04 05:55:40;;;;;;;4.93;3.53;;;19.60;86.20;;;;;;5075960;28;20893;-66
2022/07/04 05:58:07;;;;;;;8.80;3.43;;;19.60;86.20;;;;;;5075569;28;20464;-65
2022/07/04 06:00:34;;;;;;;5.53;3.70;;;19.70;85.30;;;;;;5077037;28;20462;-63
2022/07/04 06:03:02;;;;;;;4.60;4.20;;;19.90;85.00;;;;;;5076794;28;20458;-64
2022/07/04 06:05:29;;;;;;;7.37;4.20;;;20.10;84.30;;;;;;5081185;28;20990;-63
2022/07/04 06:07:56;;;;;;;5.20;3.53;;;20.20;83.00;;;;;;5074309;28;20466;-63
2022/07/04 06:10:25;;;;;;;3.40;3.10;;;20.20;83.40;;;;;;5075947;28;20528;-64
2022/07/04 06:12:53;;;;;;;5.50;4.27;;;20.40;82.50;;;;;;5091310;28;20462;-64
2022/07/04 06:15:20;;;;;;;4.23;3.77;;;20.40;81.40;;;;;;5079819;28;20548;-64
2022/07/04 06:17:48;;;;;;;3.67;3.40;;;20.50;81.10;;;;;;5080082;28;20474;-63
2022/07/04 06:20:15;;;;;;;7.23;4.00;;;20.70;80.40;;;;;;5075400;28;20463;-64
2022/07/04 06:22:44;;;;;;;6.00;3.50;;;20.80;79.50;;;;;;5075547;28;20479;-63
2022/07/04 06:25:13;;;;;;;4.67;3.37;;;20.70;78.40;;;;;;5075252;28;20530;-64
2022/07/04 06:27:42;;;;;;;3.73;3.43;;;20.60;77.90;;;;;;5073985;28;20494;-63
2022/07/04 06:30:10;;;;;;;6.30;3.50;;;20.50;77.80;;;;;;5077872;28;20479;-62
2022/07/04 06:32:44;;;;;;;4.50;3.47;;;20.50;77.10;;;;;;5074297;28;20530;-62
2022/07/04 06:37:56;;;;;;;6.37;3.10;;;20.20;75.80;;;;;;5074533;28;20553;-62
2022/07/04 06:40:52;;;;;;;3.87;3.53;;;20.00;75.80;;;;;;5078099;28;20455;-58
2022/07/04 06:43:21;;;;;;;3.50;3.20;;;20.10;75.90;;;;;;5075217;28;20444;-60
2022/07/04 06:45:49;;;;;;;4.43;3.43;;;20.10;75.40;;;;;;5074525;28;20476;-61
2022/07/04 06:48:16;;;;;;;6.30;3.47;;;20.20;75.60;;;;;;5082138;28;20454;-68
2022/07/04 06:50:44;;;;;;;5.37;3.90;;;20.20;75.00;;;;;;5085792;28;20506;-67
2022/07/04 06:53:11;;;;;;;6.50;3.40;;;20.20;75.10;;;;;;5078385;28;20479;-60
2022/07/04 06:55:39;;;;;;;3.40;3.10;;;20.20;75.00;;;;;;5074172;28;20471;-62
2022/07/04 06:58:08;;;;;;;3.50;2.80;;;20.10;74.70;;;;;;5073780;28;20464;-61
2022/07/04 07:00:37;;;;;;;3.20;2.40;;;20.10;74.60;;;;;;5074532;28;20483;-60
2022/07/04 07:03:05;;;;;;;4.30;3.40;;;20.20;73.80;;;;;;5075134;28;20459;-60
2022/07/04 07:05:34;;;;;;;2.77;2.57;;;20.20;72.70;;;;;;5075274;28;20517;-60
2022/07/04 07:08:01;;;;;;;3.17;2.87;;;20.30;72.10;;;;;;5078216;28;20455;-61
2022/07/04 07:10:28;;;;;;;3.40;2.87;;;20.40;71.70;;;;;;5075847;28;20482;-60
2022/07/04 07:12:56;;;;;;;4.67;2.37;;;20.40;71.10;;;;;;5076538;28;20452;-60
2022/07/04 07:15:23;;;;;;;3.40;2.40;;;20.40;70.80;;;;;;5076225;28;20463;-60
2022/07/04 07:17:51;;;;;;;4.47;2.53;;;20.40;69.70;;;;;;5074417;28;20447;-60
2022/07/04 07:20:19;;;;;;;4.90;2.30;;;20.30;69.80;;;;;;5074457;28;20451;-60
2022/07/04 07:22:46;;;;;;;6.40;2.47;;;20.20;69.70;;;;;;5073381;28;20455;-60
2022/07/04 07:25:14;;;;;;;5.23;2.70;;;20.10;69.30;;;;;;5073395;28;20927;-61
2022/07/04 07:27:42;;;;;;;2.20;2.00;;;20.10;68.90;;;;;;5073944;28;20447;-61
2022/07/04 07:30:10;;;;;;;5.13;2.10;;;20.10;68.50;;;;;;5076507;28;20477;-62
2022/07/04 07:32:37;;;;;;;2.70;2.50;;;20.20;68.00;;;;;;5054432;28;20831;-61
2022/07/04 07:35:07;;;;;;;3.30;2.00;;;20.30;67.10;;;;;;5054227;28;20460;-61
2022/07/04 07:37:34;;;;;;;3.27;1.87;;;20.40;66.30;;;;;;5053914;28;20862;-60
2022/07/04 07:40:02;;;;;;;4.50;2.20;;;20.40;65.60;;;;;;5053559;28;20569;-61
2022/07/04 07:42:30;;;;;;;1.93;1.70;;;20.30;65.60;;;;;;5053560;28;20455;-60
2022/07/04 07:45:07;;;;;;;4.73;2.33;;;20.20;65.70;;;;;;5055356;28;20979;-60
2022/07/04 07:47:34;;;;;;;6.07;1.80;;;20.20;65.50;;;;;;5075405;28;20510;-61
2022/07/04 07:50:03;;;;;;;7.73;2.80;;;20.30;65.40;;;;;;5073083;28;20578;-60
2022/07/04 07:52:32;;;;;;;3.87;2.40;;;20.40;64.90;;;;;;5073338;28;20930;-61
2022/07/04 07:54:59;;;;;;;6.73;2.63;;;20.50;64.00;;;;;;5072542;28;20584;-60
2022/07/04 07:57:27;;;;;;;2.60;1.80;;;20.70;64.00;;;;;;5073237;28;20485;-61
2022/07/04 07:59:54;;;;;;;2.67;1.60;;;20.70;64.00;;;;;;5068169;28;20947;-61
2022/07/04 08:04:33;;;;;;;3.00;2.20;;;20.80;63.10;;;;;;5072775;28;20508;-61
2022/07/04 08:05:10;;;;;;;2.23;1.30;;;20.80;62.20;;;;;;5072962;28;20827;-62
2022/07/04 08:07:39;;;;;;;2.33;1.70;;;20.80;61.00;;;;;;5075189;28;20533;-57
2022/07/04 08:10:08;;;;;;;4.97;1.40;;;20.80;59.90;;;;;;5074290;28;20568;-59
2022/07/04 08:12:35;;;;;;;2.10;1.73;;;20.80;59.20;;;;;;5091439;28;20523;-61
2022/07/04 08:15:02;;;;;;;4.63;1.50;;;20.80;58.30;;;;;;5081452;28;20510;-62
2022/07/04 08:17:30;;;;;;;4.60;1.17;;;20.80;57.80;;;;;;5073250;28;20447;-60
2022/07/04 08:19:57;;;;;;;5.10;1.60;;;20.90;57.30;;;;;;5073507;28;20451;-59
2022/07/04 08:22:25;;;;;;;2.53;1.30;;;21.00;56.60;;;;;;5073570;28;20463;-61
2022/07/04 08:24:53;;;;;;;3.27;1.40;;;21.10;56.60;;;;;;5075415;28;20484;-61
2022/07/04 08:27:22;;;;;;;1.93;1.40;;;21.20;56.20;;;;;;5073555;28;20443;-63
2022/07/04 08:29:50;;;;;;;3.97;1.37;;;21.10;55.60;;;;;;5066973;28;20515;-65
2022/07/04 08:32:17;;;;;;;2.10;1.50;;;21.10;55.20;;;;;;5076522;28;20460;-66
2022/07/04 08:34:44;;;;;;;3.63;1.60;;;21.20;54.90;;;;;;5076198;28;20464;-61
2022/07/04 08:37:12;;;;;;;2.60;1.67;;;21.20;54.70;;;;;;5074794;28;20947;-61
2022/07/04 08:39:39;;;;;;;2.53;1.33;;;21.20;54.80;;;;;;5072967;28;20555;-61
2022/07/04 08:42:13;;;;;;;1.20;1.00;;;21.30;54.70;;;;;;5076044;28;20455;-59
2022/07/04 08:44:45;;;;;;;3.53;1.07;;;21.30;53.80;;;;;;5076304;28;21010;-59
2022/07/04 08:47:18;;;;;;;2.03;1.23;;;21.40;53.10;;;;;;5093508;28;20429;-60
2022/07/04 08:49:53;;;;;;;2.93;1.37;;;21.50;52.30;;;;;;5094120;28;20505;-59
2022/07/04 08:52:29;;;;;;;2.27;1.37;;;21.60;52.10;;;;;;5075755;28;20451;-60
2022/07/04 09:00:30;;;;;;;1.20;1.10;;;22.00;50.00;;;;;;5076771;28;20424;-62
2022/07/04 09:02:59;;;;;;;2.57;1.00;;;22.00;49.70;;;;;;5078385;28;20444;-61
2022/07/04 09:05:26;;;;;;;1.47;1.00;;;21.90;49.50;;;;;;5076571;28;20531;-61
2022/07/04 09:07:54;;;;;;;2.00;1.10;;;21.90;49.50;;;;;;5075757;28;20461;-61
2022/07/04 09:10:23;;;;;;;1.93;1.10;;;22.00;49.70;;;;;;5074931;28;20531;-61
2022/07/04 09:12:52;;;;;;;3.97;1.03;;;22.20;49.50;;;;;;5075734;28;20476;-62
2022/07/04 09:15:20;;;;;;;1.00;0.90;;;22.30;49.30;;;;;;5076118;28;20504;-63
2022/07/04 09:17:48;;;;;;;2.93;1.13;;;22.40;49.30;;;;;;5081715;28;20456;-61
2022/07/04 09:20:18;;;;;;;1.53;0.90;;;22.40;49.10;;;;;;5081282;28;20530;-65
2022/07/04 09:22:47;;;;;;;2.50;1.33;;;22.30;48.40;;;;;;5076030;28;20868;-63
2022/07/04 09:25:15;;;;;;;1.53;0.87;;;22.40;47.40;;;;;;5075419;28;20859;-62
2022/07/04 09:27:45;;;;;;;1.90;0.80;;;22.40;46.80;;;;;;5074863;28;20520;-63
2022/07/04 09:30:15;;;;;;;1.77;1.00;;;22.40;45.80;;;;;;5075323;28;21039;-64
2022/07/04 09:32:43;;;;;;;2.13;0.97;;;22.40;45.80;;;;;;5075750;28;20928;-64
2022/07/04 09:35:12;;;;;;;1.10;0.63;;;22.50;46.20;;;;;;5074950;28;20510;-62
2022/07/04 09:37:41;;;;;;;1.67;1.10;;;22.80;46.00;;;;;;5075452;28;20504;-62
2022/07/04 09:40:21;;;;;;;1.33;0.87;;;22.80;45.60;;;;;;5075703;28;20453;-62
2022/07/04 09:42:48;;;;;;;2.90;0.90;;;22.70;45.50;;;;;;5079155;28;20448;-63
2022/07/04 09:45:17;;;;;;;3.47;0.80;;;22.60;45.40;;;;;;5093552;28;20474;-63
2022/07/04 09:47:47;;;;;;;3.20;0.90;;;22.60;45.80;;;;;;5076183;28;20500;-63
2022/07/04 09:50:15;;;;;;;3.00;1.17;;;22.80;45.80;;;;;;5075521;28;20518;-63
2022/07/04 09:52:52;;;;;;;2.33;0.80;;;22.90;45.70;;;;;;5075089;28;20466;-62
2022/07/04 09:55:27;;;;;;;2.50;1.20;;;22.80;45.80;;;;;;5072819;28;20489;-63
2022/07/04 09:57:56;;;;;;;1.47;0.90;;;22.80;45.90;;;;;;5074895;28;20535;-63
2022/07/04 10:00:27;;;;;;;3.83;1.07;;;23.00;45.90;;;;;;5075172;28;20466;-62
2022/07/04 10:02:56;;;;;;;1.87;0.90;;;23.20;45.50;;;;;;5074179;28;20523;-62
2022/07/04 10:05:25;;;;;;;2.90;1.10;;;23.40;44.90;;;;;;5074660;28;20995;-62
2022/07/04 10:07:57;;;;;;;3.90;0.97;;;23.60;44.40;;;;;;5084346;28;20462;-60
2022/07/04 10:10:30;;;;;;;5.70;1.00;;;23.80;43.80;;;;;;5073969;28;20890;-66
2022/07/04 10:12:59;;;;;;;1.70;0.90;;;23.80;43.60;;;;;;5074591;28;20485;-64
2022/07/04 10:15:28;;;;;;;1.53;0.90;;;23.60;43.80;;;;;;5074855;28;20476;-65
2022/07/04 10:17:56;;;;;;;1.47;0.80;;;23.60;44.00;;;;;;5074601;28;20935;-63
2022/07/04 10:20:23;;;;;;;1.73;0.90;;;23.70;44.30;;;;;;5077545;28;20503;-66
2022/07/04 10:22:54;;;;;;;5.40;1.07;;;23.80;44.20;;;;;;5082548;28;20447;-61
2022/07/04 10:25:21;;;;;;;2.00;1.03;;;23.90;43.90;;;;;;5075640;28;20579;-65
2022/07/04 10:27:51;;;;;;;1.40;1.00;;;24.00;43.90;;;;;;5081179;28;20463;-65
2022/07/04 10:30:24;;;;;;;0.90;0.73;;;23.90;44.00;;;;;;5074240;28;20514;-65
2022/07/04 10:32:54;;;;;;;1.50;0.90;;;23.80;44.20;;;;;;5074332;28;20431;-65
2022/07/04 10:35:49;;;;;;;1.10;0.70;;;23.90;43.70;;;;;;5073459;28;21047;-63
2022/07/04 10:38:18;;;;;;;4.70;1.00;;;24.00;42.80;;;;;;5074550;28;20433;-65
2022/07/04 10:40:47;;;;;;;2.07;1.00;;;24.10;42.50;;;;;;5074396;28;20468;-66
2022/07/04 10:43:54;;;;;;;1.10;0.73;;;24.10;42.00;;;;;;5074194;28;20435;-64
2022/07/04 10:46:44;;;;;;;1.77;1.20;;;24.20;41.80;;;;;;5059134;28;20480;-66
2022/07/04 10:49:21;;;;;;;1.97;1.30;;;24.30;42.10;;;;;;5077515;28;20455;-65
2022/07/04 10:51:50;;;;;;;2.83;1.30;;;24.50;42.20;;;;;;5075711;28;20526;-65
2022/07/04 10:54:19;;;;;;;2.47;0.90;;;24.80;42.00;;;;;;5074320;28;20480;-65
2022/07/04 10:56:52;;;;;;;1.53;1.10;;;24.80;41.50;;;;;;5117992;22;20519;-64
2022/07/04 10:59:25;;;;;;;2.10;1.30;;;24.80;41.20;;;;;;5072465;28;20450;-65
2022/07/04 11:02:35;;;;;;;2.80;2.50;;;24.70;41.90;;;;;;5071886;28;20460;-64
2022/07/04 11:05:05;;;;;;;2.00;1.20;;;24.50;41.70;;;;;;5040524;28;20583;-64
2022/07/04 11:07:58;;;;;;;1.30;1.03;;;24.60;41.80;;;;;;5073592;28;20901;-65
2022/07/04 11:10:26;;;;;;;1.40;0.97;;;24.60;41.60;;;;;;5073313;28;21010;-66
2022/07/04 11:13:16;;;;;;;2.10;0.97;;;24.60;41.40;;;;;;5091956;28;20467;-64
2022/07/04 11:16:02;;;;;;;2.30;1.17;;;24.50;41.20;;;;;;5093466;28;20506;-64
2022/07/04 11:18:30;;;;;;;1.60;0.87;;;24.50;40.40;;;;;;5092267;28;20467;-64
2022/07/04 11:20:59;;;;;;;2.73;0.90;;;24.40;40.40;;;;;;5085637;28;20439;-65
2022/07/04 11:23:26;;;;;;;1.30;1.00;;;24.50;40.70;;;;;;5093148;28;20482;-65
2022/07/04 11:25:55;;;;;;;2.10;0.90;;;24.50;40.80;;;;;;5091407;28;20570;-65
2022/07/04 11:28:25;;;;;;;4.30;1.27;;;24.50;41.00;;;;;;5074842;28;20853;-63
2022/07/04 11:30:54;;;;;;;3.50;1.40;;;24.60;41.00;;;;;;5086547;28;20483;-64
2022/07/04 11:33:23;;;;;;;1.20;0.97;;;24.70;40.80;;;;;;5084884;28;20442;-65
2022/07/04 11:36:09;;;;;;;1.60;1.00;;;24.80;40.40;;;;;;5085233;28;20573;-65
2022/07/04 11:38:48;;;;;;;2.47;1.10;;;24.90;41.00;;;;;;5072728;28;20486;-64
2022/07/04 11:46:49;;;;;;;1.93;0.90;;;25.50;39.40;;;;;;5073013;28;20940;-64
2022/07/04 11:49:16;;;;;;;1.40;1.30;;;25.70;39.00;;;;;;5071927;28;20965;-65
2022/07/04 11:51:47;;;;;;;2.60;0.90;;;25.60;39.00;;;;;;5083012;28;20480;-65
2022/07/04 11:54:15;;;;;;;1.93;0.90;;;25.30;39.40;;;;;;5091879;28;20454;-67
2022/07/04 11:56:42;;;;;;;1.73;1.07;;;25.00;39.70;;;;;;5085924;28;20481;-66
2022/07/04 11:59:14;;;;;;;1.10;0.80;;;25.00;39.70;;;;;;5089527;28;20877;-64
2022/07/04 12:01:44;;;;;;;1.30;0.87;;;25.10;39.30;;;;;;5091595;28;20444;-64
2022/07/04 12:04:16;;;;;;;1.07;0.80;;;25.10;39.30;;;;;;5092272;28;20473;-64
2022/07/04 12:06:46;;;;;;;2.90;0.93;;;25.10;39.50;;;;;;5092707;28;20470;-65
2022/07/04 12:09:16;;;;;;;2.50;1.03;;;25.90;38.90;;;;;;5081671;28;20464;-64
2022/07/04 12:11:58;;;;;;;1.03;0.70;;;26.60;37.40;;;;;;5073689;28;20585;-64
2022/07/04 12:14:27;;;;;;;2.00;1.07;;;26.90;36.30;;;;;;5072777;28;20476;-66
2022/07/04 12:17:12;;;;;;;1.43;1.00;;;27.10;36.20;;;;;;5071752;28;20524;-65
2022/07/04 12:19:50;;;;;;;1.40;0.80;;;27.10;35.90;;;;;;5081545;28;21001;-66
2022/07/04 12:22:27;;;;;;;0.90;0.70;;;26.80;36.20;;;;;;5091568;28;21083;-64
2022/07/04 12:24:55;;;;;;;2.20;0.80;;;26.10;37.10;;;;;;5092634;28;20522;-65
2022/07/04 12:27:22;;;;;;;1.90;1.10;;;25.60;38.10;;;;;;5084819;28;20445;-66
2022/07/04 12:29:50;;;;;;;1.67;0.90;;;25.50;38.30;;;;;;5084096;28;20518;-65
2022/07/04 12:32:18;;;;;;;0.70;0.70;;;25.40;38.60;;;;;;5094990;28;20492;-65
2022/07/04 12:34:45;;;;;;;1.70;1.20;;;25.40;38.70;;;;;;5096609;28;20451;-63
2022/07/04 12:37:14;;;;;;;2.27;1.27;;;25.70;38.90;;;;;;5088063;28;20560;-65
2022/07/04 12:39:44;;;;;;;2.40;1.00;;;25.80;38.10;;;;;;5096943;28;20518;-65
2022/07/04 12:42:14;;;;;;;0.90;0.70;;;25.80;38.20;;;;;;5096573;28;20442;-65
2022/07/04 12:44:43;;;;;;;1.30;0.80;;;26.00;38.20;;;;;;5084597;28;20459;-64
2022/07/04 12:47:12;;;;;;;1.50;0.80;;;26.40;37.50;;;;;;5097719;28;20854;-65
2022/07/04 12:49:44;;;;;;;1.53;0.90;;;26.50;36.70;;;;;;5092797;28;20454;-65
2022/07/04 12:52:14;;;;;;;1.90;1.00;;;26.40;36.00;;;;;;5097205;28;20470;-65
2022/07/04 12:54:45;;;;;;;1.63;1.53;;;26.30;36.10;;;;;;5076072;28;20490;-65
2022/07/04 12:57:14;;;;;;;2.50;0.90;;;26.10;36.40;;;;;;5076610;28;20491;-65
2022/07/04 12:59:43;;;;;;;2.43;1.13;;;25.90;36.90;;;;;;5085916;28;20925;-63
2022/07/04 13:02:11;;;;;;;1.40;1.00;;;25.80;37.10;;;;;;5084375;28;20982;-65
2022/07/04 13:04:39;;;;;;;2.43;1.00;;;25.80;37.30;;;;;;5096097;28;20442;-64
2022/07/04 13:07:17;;;;;;;1.90;0.90;;;25.90;37.20;;;;;;5097643;28;20536;-64
2022/07/04 13:09:47;;;;;;;2.40;1.07;;;25.80;37.20;;;;;;5097298;28;20526;-63
2022/07/04 13:12:27;;;;;;;2.70;1.00;;;25.80;37.50;;;;;;5080195;28;20493;-65
2022/07/04 13:14:56;;;;;;;3.20;0.77;;;25.70;37.80;;;;;;5096397;28;20480;-65
2022/07/04 13:17:25;;;;;;;1.30;1.07;;;25.70;38.00;;;;;;5096308;28;20452;-64